Time;durP1;ratioP1;P1;durP2;ratioP2;P2;SDS_P1;SDS_P2;PMS_P1;PMS_P2;Temp;Humidity;BMP_temperature;BMP_pressure;BME280_temperature;BME280_humidity;BME280_pressure;Samples;Min_cycle;Max_cycle;Signal;HPM_P1;HPM_P2
2023/04/04 00:01:24;;;;;;;0.30;0.30;;;8.80;98.50;;;;;;5048410;28;20188;-76
2023/04/04 00:03:50;;;;;;;0.30;0.30;;;8.80;98.50;;;;;;5048906;28;20656;-75
2023/04/04 00:06:19;;;;;;;0.40;0.40;;;8.80;98.50;;;;;;5050989;28;20204;-77
2023/04/04 00:08:45;;;;;;;0.33;0.33;;;8.80;98.50;;;;;;5055270;28;20714;-76
2023/04/04 00:11:12;;;;;;;0.30;0.30;;;8.80;98.50;;;;;;5048291;28;20305;-76
2023/04/04 00:13:38;;;;;;;0.60;0.60;;;8.90;98.50;;;;;;5047145;28;20183;-76
2023/04/04 00:16:05;;;;;;;1.13;0.60;;;8.80;98.50;;;;;;5049240;28;20179;-76
2023/04/04 00:18:31;;;;;;;0.67;0.67;;;8.80;98.50;;;;;;5055014;28;20269;-76
2023/04/04 00:20:57;;;;;;;0.90;0.40;;;8.80;98.50;;;;;;5044341;28;20237;-76
2023/04/04 00:23:23;;;;;;;1.20;0.70;;;8.80;98.50;;;;;;5049473;28;20199;-76
2023/04/04 00:25:52;;;;;;;0.80;0.63;;;8.90;98.50;;;;;;5047765;28;20207;-76
2023/04/04 00:28:19;;;;;;;1.03;0.90;;;8.90;98.50;;;;;;5046411;28;20195;-76
2023/04/04 00:30:45;;;;;;;6.03;1.30;;;8.90;98.50;;;;;;5049764;28;20271;-75
2023/04/04 00:33:12;;;;;;;0.63;0.63;;;8.90;98.50;;;;;;5052156;28;20203;-76
2023/04/04 00:35:38;;;;;;;0.80;0.80;;;8.90;98.50;;;;;;5050160;28;20568;-77
2023/04/04 00:38:03;;;;;;;1.40;0.83;;;8.90;98.50;;;;;;5049308;28;20202;-76
2023/04/04 00:40:29;;;;;;;0.87;0.63;;;8.90;98.50;;;;;;5050499;28;20200;-77
2023/04/04 00:42:56;;;;;;;1.67;0.50;;;8.90;98.50;;;;;;5046544;28;20204;-76
2023/04/04 00:45:22;;;;;;;1.00;0.80;;;8.90;98.50;;;;;;5047266;28;20261;-77
2023/04/04 00:47:49;;;;;;;0.20;0.20;;;8.90;98.50;;;;;;5050387;28;20194;-77
2023/04/04 00:50:15;;;;;;;1.23;0.90;;;8.80;98.50;;;;;;5048190;28;20237;-77
2023/04/04 00:52:41;;;;;;;2.10;0.60;;;8.80;98.50;;;;;;5050778;28;20306;-76
2023/04/04 00:55:07;;;;;;;0.60;0.50;;;8.80;98.50;;;;;;5048974;28;20275;-77
2023/04/04 00:57:33;;;;;;;0.67;0.47;;;8.70;98.50;;;;;;5047582;28;20203;-76
2023/04/04 01:00:03;;;;;;;0.83;0.50;;;8.70;98.50;;;;;;5046726;28;20712;-77
2023/04/04 01:02:29;;;;;;;0.30;0.30;;;8.60;98.50;;;;;;5046108;28;20611;-77
2023/04/04 01:04:55;;;;;;;0.17;0.17;;;8.60;98.50;;;;;;5049909;28;20277;-77
2023/04/04 01:07:21;;;;;;;0.20;0.20;;;8.60;98.50;;;;;;5054951;28;20222;-77
2023/04/04 01:09:47;;;;;;;0.20;0.20;;;8.60;98.50;;;;;;5054253;28;20666;-77
2023/04/04 01:12:13;;;;;;;0.37;0.37;;;8.60;98.50;;;;;;5053361;28;20278;-76
2023/04/04 01:14:39;;;;;;;0.20;0.20;;;8.60;98.50;;;;;;5053857;28;20262;-76
2023/04/04 01:17:05;;;;;;;0.20;0.20;;;8.50;98.50;;;;;;5054985;28;20195;-76
2023/04/04 01:19:48;;;;;;;0.27;0.20;;;8.50;98.50;;;;;;5053393;28;20195;-76
2023/04/04 01:22:16;;;;;;;0.20;0.20;;;8.50;98.50;;;;;;5052301;28;20218;-75
2023/04/04 01:24:43;;;;;;;0.17;0.17;;;8.40;98.50;;;;;;5052812;28;20178;-76
2023/04/04 01:27:09;;;;;;;0.17;0.17;;;8.40;98.50;;;;;;5088812;28;20218;-77
2023/04/04 01:29:35;;;;;;;0.10;0.10;;;8.30;98.50;;;;;;5055015;28;20191;-77
2023/04/04 01:32:11;;;;;;;0.23;0.23;;;8.30;98.50;;;;;;5048482;28;20208;-77
2023/04/04 01:34:55;;;;;;;0.40;0.40;;;8.30;98.50;;;;;;5060137;28;20195;-76
2023/04/04 01:37:38;;;;;;;0.20;0.20;;;8.30;98.50;;;;;;5053063;28;20608;-76
2023/04/04 01:40:15;;;;;;;0.20;0.20;;;8.30;98.50;;;;;;5047362;28;20202;-76
2023/04/04 01:42:43;;;;;;;0.17;0.10;;;8.30;98.50;;;;;;5050675;28;20565;-76
2023/04/04 01:45:09;;;;;;;0.20;0.20;;;8.30;98.50;;;;;;5053026;28;20749;-76
2023/04/04 01:47:42;;;;;;;0.10;0.10;;;8.30;98.50;;;;;;5047970;28;20287;-76
2023/04/04 01:50:09;;;;;;;0.23;0.23;;;8.20;98.50;;;;;;5057433;28;20575;-77
2023/04/04 01:52:35;;;;;;;0.20;0.20;;;8.20;98.50;;;;;;5052342;28;20187;-76
2023/04/04 01:55:02;;;;;;;0.10;0.10;;;8.20;98.50;;;;;;5047731;28;20259;-77
2023/04/04 01:57:28;;;;;;;0.10;0.10;;;8.20;98.50;;;;;;5055361;28;20570;-77
2023/04/04 01:59:54;;;;;;;0.10;0.10;;;8.30;98.50;;;;;;5055914;28;20198;-77
2023/04/04 02:02:20;;;;;;;0.17;0.17;;;8.30;98.50;;;;;;5054893;28;20171;-77
2023/04/04 02:04:46;;;;;;;0.10;0.10;;;8.30;98.50;;;;;;5056601;28;20183;-77
2023/04/04 02:07:13;;;;;;;0.10;0.10;;;8.30;98.50;;;;;;5061150;28;20708;-77
2023/04/04 02:09:38;;;;;;;0.10;0.10;;;8.40;98.50;;;;;;5052032;28;20179;-77
2023/04/04 02:12:05;;;;;;;0.20;0.20;;;8.30;98.50;;;;;;5058553;28;20224;-76
2023/04/04 02:14:30;;;;;;;0.10;0.10;;;8.30;98.50;;;;;;5056555;28;20187;-76
2023/04/04 02:16:56;;;;;;;0.20;0.20;;;8.40;98.50;;;;;;5056948;28;20741;-77
2023/04/04 02:19:23;;;;;;;0.20;0.20;;;;;;;;;;5059836;28;20187;-76
2023/04/04 02:21:49;;;;;;;1.40;0.30;;;8.40;98.50;;;;;;5049989;28;20289;-76
2023/04/04 02:24:15;;;;;;;0.10;0.10;;;8.40;98.50;;;;;;5060348;28;20203;-76
2023/04/04 02:26:40;;;;;;;0.30;0.30;;;8.40;98.50;;;;;;5053808;28;20308;-76
2023/04/04 02:29:06;;;;;;;0.10;0.10;;;8.40;98.50;;;;;;5054239;28;20249;-77
2023/04/04 02:31:32;;;;;;;0.10;0.10;;;8.40;98.50;;;;;;5051747;28;20191;-76
2023/04/04 02:33:58;;;;;;;0.10;0.10;;;8.30;98.50;;;;;;5057559;28;20634;-77
2023/04/04 02:36:24;;;;;;;0.10;0.10;;;8.20;98.50;;;;;;5060999;28;20191;-76
2023/04/04 02:38:49;;;;;;;0.03;0.03;;;8.20;98.50;;;;;;5050632;28;20632;-76
2023/04/04 02:41:15;;;;;;;0.10;0.10;;;8.10;98.50;;;;;;5056776;28;20732;-76
2023/04/04 02:43:41;;;;;;;0.00;0.00;;;8.10;98.50;;;;;;5054864;28;20187;-76
2023/04/04 02:46:06;;;;;;;0.00;0.00;;;8.10;98.50;;;;;;5059693;28;20242;-77
2023/04/04 02:48:32;;;;;;;0.10;0.10;;;8.10;98.50;;;;;;5061706;28;20171;-77
2023/04/04 02:50:58;;;;;;;0.10;0.10;;;8.10;98.50;;;;;;5056869;28;20176;-76
2023/04/04 02:53:24;;;;;;;0.10;0.10;;;8.10;98.50;;;;;;5053722;28;22133;-77
2023/04/04 02:55:49;;;;;;;0.83;0.40;;;8.10;98.50;;;;;;5058083;28;20183;-77
2023/04/04 02:58:15;;;;;;;0.20;0.20;;;8.20;98.50;;;;;;5054753;28;20179;-77
2023/04/04 03:00:40;;;;;;;0.10;0.10;;;8.10;98.50;;;;;;5059080;28;20210;-77
2023/04/04 03:03:06;;;;;;;0.00;0.00;;;8.20;98.50;;;;;;5053637;28;20171;-77
2023/04/04 03:05:32;;;;;;;0.00;0.00;;;8.10;98.50;;;;;;5051661;28;20202;-77
2023/04/04 03:07:58;;;;;;;0.47;0.10;;;8.10;98.50;;;;;;5054270;28;20218;-77
2023/04/04 03:10:28;;;;;;;0.03;0.03;;;8.20;98.50;;;;;;5052070;28;20206;-77
2023/04/04 03:12:54;;;;;;;0.00;0.00;;;8.20;98.50;;;;;;5057530;28;20601;-77
2023/04/04 03:15:20;;;;;;;0.10;0.10;;;8.30;98.50;;;;;;5054772;28;20189;-76
2023/04/04 03:17:46;;;;;;;4.43;0.10;;;8.30;98.50;;;;;;5053050;28;20184;-76
2023/04/04 03:20:13;;;;;;;0.10;0.10;;;8.30;98.50;;;;;;5052845;28;20801;-77
2023/04/04 03:22:40;;;;;;;0.00;0.00;;;8.30;98.50;;;;;;5060333;28;20194;-77
2023/04/04 03:25:06;;;;;;;0.07;0.07;;;8.30;98.50;;;;;;5052593;28;20672;-77
2023/04/04 03:27:31;;;;;;;0.10;0.10;;;8.40;98.50;;;;;;5055247;28;20211;-76
2023/04/04 03:29:58;;;;;;;0.00;0.00;;;8.40;98.50;;;;;;5053607;28;20179;-76
2023/04/04 03:32:24;;;;;;;0.70;0.10;;;8.40;98.50;;;;;;5053178;28;20306;-76
2023/04/04 03:34:50;;;;;;;0.10;0.10;;;8.50;98.50;;;;;;5056559;28;20183;-76
2023/04/04 03:37:17;;;;;;;0.17;0.17;;;8.50;98.50;;;;;;5051455;28;20184;-76
2023/04/04 03:39:42;;;;;;;0.10;0.10;;;8.50;98.50;;;;;;5058511;28;20569;-76
2023/04/04 03:42:08;;;;;;;0.10;0.10;;;8.50;98.50;;;;;;5055456;28;20172;-76
2023/04/04 03:44:35;;;;;;;0.00;0.00;;;8.50;98.50;;;;;;5058966;28;20202;-76
2023/04/04 03:47:02;;;;;;;0.00;0.00;;;8.50;98.50;;;;;;5085044;28;20227;-77
2023/04/04 03:49:28;;;;;;;0.20;0.20;;;8.30;98.50;;;;;;5050422;28;20182;-77
2023/04/04 03:51:54;;;;;;;0.20;0.20;;;8.30;98.50;;;;;;5050972;28;20198;-76
2023/04/04 03:54:20;;;;;;;0.10;0.10;;;8.30;98.50;;;;;;5050227;28;20179;-76
2023/04/04 03:56:45;;;;;;;2.00;0.10;;;8.40;98.50;;;;;;5053458;28;20225;-76
2023/04/04 03:59:11;;;;;;;0.10;0.10;;;8.30;98.50;;;;;;5057331;28;20234;-76
2023/04/04 04:01:37;;;;;;;0.40;0.10;;;8.40;98.50;;;;;;5048010;28;20187;-76
2023/04/04 04:04:02;;;;;;;0.10;0.10;;;8.40;98.50;;;;;;5057523;28;20205;-76
2023/04/04 04:06:28;;;;;;;0.10;0.10;;;8.50;98.50;;;;;;5056036;28;20210;-76
2023/04/04 04:08:55;;;;;;;0.20;0.20;;;8.50;98.50;;;;;;5056800;28;20262;-76
2023/04/04 04:11:21;;;;;;;0.20;0.20;;;8.60;98.50;;;;;;5061487;28;20175;-76
2023/04/04 04:13:46;;;;;;;0.17;0.17;;;8.60;98.50;;;;;;5056136;28;20176;-77
2023/04/04 04:16:12;;;;;;;0.20;0.20;;;8.60;98.50;;;;;;5050747;28;20660;-77
2023/04/04 04:18:39;;;;;;;0.30;0.30;;;8.60;98.50;;;;;;5049085;28;20184;-76
2023/04/04 04:21:05;;;;;;;0.20;0.20;;;8.50;98.50;;;;;;5054193;28;20183;-77
2023/04/04 04:23:31;;;;;;;0.20;0.20;;;8.50;98.50;;;;;;5050823;28;20191;-77
2023/04/04 04:25:56;;;;;;;0.30;0.30;;;8.50;98.50;;;;;;5051629;28;20973;-77
2023/04/04 04:28:25;;;;;;;0.40;0.40;;;8.40;98.50;;;;;;5051243;28;20661;-77
2023/04/04 04:30:51;;;;;;;0.23;0.23;;;8.40;98.50;;;;;;5053450;28;20257;-77
2023/04/04 04:33:18;;;;;;;0.20;0.20;;;8.40;98.50;;;;;;5047258;28;20270;-76
2023/04/04 04:35:43;;;;;;;0.50;0.50;;;8.30;98.50;;;;;;5052386;28;20263;-77
2023/04/04 04:38:09;;;;;;;0.37;0.37;;;8.30;98.50;;;;;;5052243;28;20270;-74
2023/04/04 04:40:35;;;;;;;0.27;0.27;;;8.30;98.50;;;;;;5053269;28;20183;-74
2023/04/04 04:43:01;;;;;;;0.50;0.37;;;8.40;98.50;;;;;;5050479;28;20183;-73
2023/04/04 04:45:27;;;;;;;0.27;0.27;;;8.30;98.50;;;;;;5055815;28;20572;-74
2023/04/04 04:47:53;;;;;;;0.50;0.50;;;8.40;98.50;;;;;;5054325;28;20191;-74
2023/04/04 04:50:19;;;;;;;0.50;0.50;;;8.30;98.50;;;;;;5058758;28;20191;-74
2023/04/04 04:52:45;;;;;;;0.63;0.63;;;8.20;98.50;;;;;;5047959;28;20182;-76
2023/04/04 04:55:10;;;;;;;0.87;0.87;;;8.20;98.50;;;;;;5056597;28;20246;-76
2023/04/04 04:57:37;;;;;;;1.17;1.07;;;8.10;98.50;;;;;;5059982;28;20248;-76
2023/04/04 05:00:03;;;;;;;0.77;0.77;;;8.00;98.50;;;;;;5054284;28;20224;-76
2023/04/04 05:02:29;;;;;;;1.07;0.93;;;8.00;98.50;;;;;;5050406;28;20209;-76
2023/04/04 05:04:55;;;;;;;1.10;0.87;;;8.10;98.50;;;;;;5052141;28;20228;-76
2023/04/04 05:07:22;;;;;;;1.23;1.10;;;8.10;98.50;;;;;;5052180;28;20211;-76
2023/04/04 05:09:48;;;;;;;0.80;0.80;;;8.10;98.50;;;;;;5061265;28;20179;-77
2023/04/04 05:12:14;;;;;;;0.73;0.73;;;8.20;98.50;;;;;;5056024;28;20243;-77
2023/04/04 05:14:40;;;;;;;0.90;0.90;;;8.40;98.50;;;;;;5056043;28;20723;-77
2023/04/04 05:17:06;;;;;;;1.30;1.30;;;8.40;98.50;;;;;;5055668;28;20561;-76
2023/04/04 05:19:31;;;;;;;0.77;0.77;;;8.40;98.50;;;;;;5051857;28;20573;-76
2023/04/04 05:21:57;;;;;;;0.83;0.83;;;8.30;98.50;;;;;;5056327;28;20175;-76
2023/04/04 05:24:22;;;;;;;1.53;1.40;;;8.40;98.50;;;;;;5052336;28;20190;-73
2023/04/04 05:26:48;;;;;;;0.83;0.83;;;8.50;98.50;;;;;;5055524;28;20208;-76
2023/04/04 05:29:14;;;;;;;0.93;0.93;;;8.60;98.50;;;;;;5053720;28;20190;-75
2023/04/04 05:31:40;;;;;;;1.13;1.00;;;8.60;98.50;;;;;;5050156;28;20221;-74
2023/04/04 05:34:08;;;;;;;1.47;1.47;;;8.60;98.50;;;;;;5052650;28;20191;-74
2023/04/04 05:36:35;;;;;;;2.60;1.50;;;8.70;98.50;;;;;;5055375;28;20191;-75
2023/04/04 05:39:03;;;;;;;1.43;1.20;;;8.80;98.50;;;;;;5057305;28;20179;-75
2023/04/04 05:41:29;;;;;;;1.37;1.27;;;8.80;98.50;;;;;;5049519;28;20184;-75
2023/04/04 05:43:55;;;;;;;1.37;1.37;;;8.80;98.50;;;;;;5057340;28;20206;-74
2023/04/04 05:46:20;;;;;;;1.17;1.17;;;8.80;98.50;;;;;;5053007;28;20348;-74
2023/04/04 05:48:46;;;;;;;1.63;1.50;;;9.00;98.50;;;;;;5054978;28;20183;-75
2023/04/04 05:51:12;;;;;;;2.30;1.50;;;9.00;98.50;;;;;;5056610;28;20263;-72
2023/04/04 05:53:37;;;;;;;2.03;1.90;;;9.10;98.50;;;;;;5055208;28;20221;-73
2023/04/04 05:56:03;;;;;;;2.97;1.87;;;9.10;98.50;;;;;;5058264;28;20212;-73
2023/04/04 05:58:29;;;;;;;1.87;1.77;;;9.20;98.50;;;;;;5057679;28;20183;-73
2023/04/04 06:00:54;;;;;;;1.33;1.30;;;9.30;98.50;;;;;;5057499;28;20184;-74
2023/04/04 06:03:20;;;;;;;2.93;1.83;;;9.40;98.50;;;;;;5057556;28;20578;-73
2023/04/04 06:05:51;;;;;;;1.80;1.70;;;9.30;98.50;;;;;;5054691;28;20685;-73
2023/04/04 06:08:17;;;;;;;1.73;1.37;;;9.40;98.50;;;;;;5053952;28;20180;-73
2023/04/04 06:10:42;;;;;;;1.33;1.33;;;9.50;98.50;;;;;;5056062;28;20233;-73
2023/04/04 06:13:08;;;;;;;1.70;1.60;;;9.50;98.50;;;;;;5054693;28;20601;-75
2023/04/04 06:15:34;;;;;;;1.30;1.27;;;9.50;98.40;;;;;;5055949;28;20245;-74
2023/04/04 06:17:59;;;;;;;1.53;1.43;;;9.60;98.10;;;;;;5053388;28;20180;-72
2023/04/04 06:20:25;;;;;;;2.23;1.23;;;9.60;98.00;;;;;;5058374;28;20183;-73
2023/04/04 06:22:51;;;;;;;1.03;1.03;;;9.60;97.90;;;;;;5052600;28;20187;-72
2023/04/04 06:25:17;;;;;;;1.27;1.23;;;9.70;98.10;;;;;;5054055;28;20557;-72
2023/04/04 06:27:43;;;;;;;0.87;0.87;;;9.70;98.10;;;;;;5058287;28;20218;-73
2023/04/04 06:30:09;;;;;;;1.30;1.20;;;9.80;98.10;;;;;;5054246;28;20574;-72
2023/04/04 06:32:35;;;;;;;1.63;1.53;;;10.00;98.00;;;;;;5054082;28;20183;-73
2023/04/04 06:35:00;;;;;;;1.08;1.08;;;10.20;97.50;;;;;;5057377;28;20648;-73
2023/04/04 06:37:26;;;;;;;0.70;0.70;;;10.20;96.60;;;;;;5059623;28;20183;-73
2023/04/04 06:39:52;;;;;;;0.30;0.30;;;9.90;93.20;;;;;;5057955;28;20202;-73
2023/04/04 06:42:18;;;;;;;0.30;0.30;;;9.90;92.80;;;;;;5059587;28;20163;-74
2023/04/04 06:44:43;;;;;;;0.20;0.20;;;9.70;92.10;;;;;;5055555;28;20680;-73
2023/04/04 06:47:09;;;;;;;0.10;0.10;;;9.40;90.50;;;;;;5052001;28;20207;-73
2023/04/04 06:49:35;;;;;;;0.13;0.13;;;9.30;90.50;;;;;;5052696;28;20198;-74
2023/04/04 06:52:01;;;;;;;0.20;0.20;;;8.70;90.90;;;;;;5048054;28;20195;-71
2023/04/04 06:54:26;;;;;;;0.10;0.10;;;8.60;90.60;;;;;;5053542;28;20190;-71
2023/04/04 06:56:52;;;;;;;0.20;0.20;;;8.20;90.70;;;;;;5050590;28;20225;-74
2023/04/04 06:59:18;;;;;;;0.03;0.03;;;7.90;90.80;;;;;;5046892;28;20180;-74
2023/04/04 07:01:44;;;;;;;0.10;0.10;;;7.60;90.80;;;;;;5056536;28;20660;-72
2023/04/04 07:04:10;;;;;;;0.10;0.10;;;7.30;91.30;;;;;;5052269;28;20187;-73
2023/04/04 07:06:36;;;;;;;0.00;0.00;;;7.00;91.10;;;;;;5056663;28;20220;-75
2023/04/04 07:09:03;;;;;;;0.07;0.07;;;6.80;91.60;;;;;;5058447;28;20211;-74
2023/04/04 07:11:29;;;;;;;0.07;0.07;;;6.50;92.00;;;;;;5052940;28;20224;-73
2023/04/04 07:13:55;;;;;;;0.00;0.00;;;6.40;92.10;;;;;;5056021;28;20187;-73
2023/04/04 07:16:21;;;;;;;0.10;0.10;;;6.20;92.60;;;;;;5058490;28;20678;-73
2023/04/04 07:18:46;;;;;;;0.10;0.10;;;6.10;93.30;;;;;;5053010;28;20726;-74
2023/04/04 07:21:12;;;;;;;0.10;0.10;;;6.00;93.70;;;;;;5059180;28;20224;-73
2023/04/04 07:23:38;;;;;;;0.20;0.20;;;6.00;94.10;;;;;;5058333;28;20222;-73
2023/04/04 07:26:04;;;;;;;0.20;0.20;;;5.90;93.60;;;;;;5059534;28;20211;-72
2023/04/04 07:28:30;;;;;;;0.10;0.10;;;5.70;93.70;;;;;;5053765;28;20277;-72
2023/04/04 07:31:01;;;;;;;0.10;0.10;;;5.60;94.40;;;;;;5053678;28;20252;-72
2023/04/04 07:33:27;;;;;;;0.10;0.10;;;5.60;93.80;;;;;;5051218;28;20660;-75
2023/04/04 07:35:53;;;;;;;0.20;0.20;;;5.50;93.90;;;;;;5053001;28;20186;-74
2023/04/04 07:38:19;;;;;;;0.20;0.20;;;5.50;93.80;;;;;;5056623;28;20543;-72
2023/04/04 07:40:45;;;;;;;0.10;0.10;;;5.40;94.30;;;;;;5059555;28;20180;-72
2023/04/04 07:43:10;;;;;;;0.10;0.10;;;5.40;94.00;;;;;;5051654;28;20184;-74
2023/04/04 07:45:36;;;;;;;0.10;0.10;;;5.30;93.70;;;;;;5055571;28;20191;-73
2023/04/04 07:48:02;;;;;;;0.03;0.03;;;5.10;93.70;;;;;;5056514;28;20591;-74
2023/04/04 07:50:28;;;;;;;0.10;0.03;;;5.10;94.20;;;;;;5056265;28;20552;-74
2023/04/04 07:52:54;;;;;;;0.13;0.13;;;5.10;94.70;;;;;;5055468;28;20186;-73
2023/04/04 07:55:23;;;;;;;0.20;0.20;;;5.20;94.40;;;;;;5057632;28;20176;-73
2023/04/04 07:57:50;;;;;;;0.10;0.10;;;5.20;94.20;;;;;;5052816;28;20210;-73
2023/04/04 08:00:20;;;;;;;0.20;0.20;;;5.10;93.80;;;;;;5055445;28;20179;-73
2023/04/04 08:02:57;;;;;;;0.87;0.30;;;5.10;93.80;;;;;;5051161;28;20269;-73
2023/04/04 08:05:23;;;;;;;0.10;0.10;;;5.10;93.60;;;;;;5055682;28;20566;-73
2023/04/04 08:07:49;;;;;;;0.10;0.10;;;5.00;93.50;;;;;;5054987;28;20210;-73
2023/04/04 08:10:19;;;;;;;0.10;0.10;;;5.00;93.70;;;;;;5052434;28;20242;-73
2023/04/04 08:12:45;;;;;;;0.10;0.10;;;5.00;93.00;;;;;;5055394;28;20605;-73
2023/04/04 08:15:11;;;;;;;0.10;0.10;;;5.10;93.30;;;;;;5060764;28;20257;-73
2023/04/04 08:17:37;;;;;;;0.10;0.10;;;5.10;92.20;;;;;;5055395;28;20214;-73
2023/04/04 08:20:03;;;;;;;0.10;0.10;;;5.10;91.50;;;;;;5062716;28;20190;-73
2023/04/04 08:22:29;;;;;;;0.10;0.10;;;4.80;91.40;;;;;;5060583;28;20175;-75
2023/04/04 08:24:55;;;;;;;0.10;0.10;;;4.60;91.90;;;;;;5058886;28;20226;-75
2023/04/04 08:27:21;;;;;;;0.27;0.20;;;4.60;92.70;;;;;;5056143;28;20203;-75
2023/04/04 08:29:47;;;;;;;0.00;0.00;;;4.70;93.20;;;;;;5059247;28;20176;-76
2023/04/04 08:32:15;;;;;;;0.10;0.10;;;4.70;92.80;;;;;;5054212;28;20184;-76
2023/04/04 08:34:41;;;;;;;0.93;0.20;;;4.60;92.70;;;;;;5059391;28;20732;-76
2023/04/04 08:37:07;;;;;;;0.10;0.10;;;4.70;93.30;;;;;;5057174;28;20193;-76
2023/04/04 08:39:33;;;;;;;0.30;0.30;;;4.70;92.30;;;;;;5059196;28;20241;-76
2023/04/04 08:42:04;;;;;;;0.10;0.10;;;4.50;91.90;;;;;;5062360;28;20183;-73
2023/04/04 08:44:30;;;;;;;1.07;0.20;;;4.40;92.10;;;;;;5058496;28;20612;-73
2023/04/04 08:47:02;;;;;;;0.20;0.20;;;4.40;92.10;;;;;;5055877;28;20199;-73
2023/04/04 08:49:30;;;;;;;0.20;0.20;;;4.40;92.00;;;;;;5057107;28;20252;-74
2023/04/04 08:51:58;;;;;;;0.00;0.00;;;4.40;91.90;;;;;;5053654;28;20667;-74
2023/04/04 08:54:25;;;;;;;0.10;0.10;;;4.30;91.70;;;;;;5059129;28;20176;-74
2023/04/04 08:56:51;;;;;;;1.13;0.37;;;4.30;91.60;;;;;;5059999;28;20266;-72
2023/04/04 08:59:17;;;;;;;0.10;0.10;;;4.30;91.70;;;;;;5055438;28;20803;-73
2023/04/04 09:01:44;;;;;;;0.20;0.20;;;4.30;92.00;;;;;;5059040;28;20736;-73
2023/04/04 09:04:10;;;;;;;0.30;0.30;;;4.40;91.60;;;;;;5060024;28;20203;-73
2023/04/04 09:06:36;;;;;;;0.30;0.13;;;4.30;91.50;;;;;;5058916;28;20204;-71
2023/04/04 09:09:02;;;;;;;0.30;0.30;;;4.20;91.10;;;;;;5053472;28;20179;-74
2023/04/04 09:11:30;;;;;;;0.20;0.20;;;4.30;92.20;;;;;;5058649;28;20176;-74
2023/04/04 09:13:57;;;;;;;0.23;0.23;;;4.40;92.00;;;;;;5055144;28;20195;-73
2023/04/04 09:16:23;;;;;;;0.10;0.10;;;4.50;92.40;;;;;;5056490;28;20570;-73
2023/04/04 09:18:49;;;;;;;0.10;0.10;;;4.60;92.20;;;;;;5055943;28;20222;-73
2023/04/04 09:21:15;;;;;;;0.20;0.20;;;4.60;91.30;;;;;;5059242;28;20536;-73
2023/04/04 09:23:42;;;;;;;0.10;0.10;;;4.60;92.00;;;;;;5053144;28;20210;-73
2023/04/04 09:26:08;;;;;;;0.10;0.10;;;4.70;91.50;;;;;;5054571;28;20221;-73
2023/04/04 09:28:34;;;;;;;0.23;0.23;;;4.80;91.40;;;;;;5058282;28;20186;-73
2023/04/04 09:31:02;;;;;;;0.10;0.10;;;4.90;90.90;;;;;;5046980;28;20192;-73
2023/04/04 09:33:28;;;;;;;0.10;0.10;;;5.00;90.10;;;;;;5042338;28;20184;-74
2023/04/04 09:35:57;;;;;;;0.50;0.20;;;5.00;88.80;;;;;;5056764;28;20187;-73
2023/04/04 09:38:25;;;;;;;0.10;0.10;;;4.80;88.20;;;;;;5046934;28;20172;-73
2023/04/04 09:40:51;;;;;;;0.00;0.00;;;4.70;88.60;;;;;;5055969;28;20179;-73
2023/04/04 09:43:20;;;;;;;0.20;0.20;;;4.60;89.00;;;;;;5051869;28;20176;-73
2023/04/04 09:45:47;;;;;;;0.20;0.20;;;4.50;89.30;;;;;;5052569;28;20195;-73
2023/04/04 09:48:33;;;;;;;0.10;0.10;;;4.40;89.00;;;;;;5056570;28;20664;-73
2023/04/04 09:51:02;;;;;;;0.20;0.20;;;4.20;89.50;;;;;;5055649;28;20183;-73
2023/04/04 09:53:28;;;;;;;0.50;0.50;;;4.10;90.10;;;;;;5052363;28;20263;-72
2023/04/04 09:55:56;;;;;;;0.50;0.30;;;4.10;90.60;;;;;;5052305;28;20282;-72
2023/04/04 09:58:30;;;;;;;0.13;0.13;;;4.00;90.30;;;;;;5053263;28;20179;-74
2023/04/04 10:00:59;;;;;;;0.20;0.20;;;4.00;90.10;;;;;;5054318;28;20187;-72
2023/04/04 10:03:26;;;;;;;0.13;0.13;;;4.10;90.30;;;;;;5050859;28;20211;-73
2023/04/04 10:06:00;;;;;;;0.13;0.13;;;4.30;90.40;;;;;;5046899;28;20215;-73
2023/04/04 10:08:27;;;;;;;0.20;0.20;;;4.40;89.90;;;;;;5040397;28;20199;-73
2023/04/04 10:10:58;;;;;;;0.13;0.13;;;4.50;88.90;;;;;;5045952;28;20264;-72
2023/04/04 10:13:31;;;;;;;0.10;0.10;;;4.50;88.10;;;;;;5043612;28;20715;-73
2023/04/04 10:15:59;;;;;;;0.83;0.10;;;4.60;87.70;;;;;;5047142;28;20214;-73
2023/04/04 10:18:29;;;;;;;0.23;0.13;;;4.70;87.50;;;;;;5046773;28;20613;-73
2023/04/04 10:20:57;;;;;;;0.20;0.20;;;4.80;86.40;;;;;;5038160;28;20196;-72
2023/04/04 10:23:26;;;;;;;2.10;0.17;;;4.90;86.40;;;;;;5033153;28;20198;-73
2023/04/04 10:25:52;;;;;;;0.13;0.13;;;5.00;86.30;;;;;;5041320;28;20219;-73
2023/04/04 10:28:20;;;;;;;0.20;0.20;;;5.10;85.70;;;;;;5038973;28;20208;-72
2023/04/04 10:31:16;;;;;;;0.00;0.00;;;5.30;85.90;;;;;;5038535;28;20211;-72
2023/04/04 10:34:19;;;;;;;0.10;0.10;;;5.20;84.90;;;;;;5037518;28;20217;-73
2023/04/04 10:36:51;;;;;;;0.10;0.10;;;5.30;85.00;;;;;;5035862;28;20246;-75
2023/04/04 10:39:28;;;;;;;0.20;0.20;;;5.30;85.00;;;;;;5042541;28;20514;-75
2023/04/04 10:41:55;;;;;;;0.37;0.37;;;5.50;84.80;;;;;;5043953;28;20229;-75
2023/04/04 10:44:38;;;;;;;0.10;0.10;;;5.40;84.20;;;;;;5045408;28;20215;-74
2023/04/04 10:47:22;;;;;;;0.40;0.40;;;5.40;85.40;;;;;;5039188;28;20674;-75
2023/04/04 10:49:49;;;;;;;0.20;0.20;;;5.40;85.30;;;;;;5046760;28;20625;-75
2023/04/04 10:52:20;;;;;;;0.20;0.20;;;5.30;85.10;;;;;;5040220;28;20207;-74
2023/04/04 10:54:48;;;;;;;0.20;0.20;;;5.20;85.40;;;;;;5039581;28;20211;-71
2023/04/04 10:57:15;;;;;;;0.30;0.20;;;5.10;85.40;;;;;;5043870;28;20230;-73
2023/04/04 11:00:08;;;;;;;0.20;0.20;;;5.10;85.90;;;;;;5046518;28;20290;-74
2023/04/04 11:02:55;;;;;;;0.20;0.20;;;5.00;86.20;;;;;;5037384;28;20223;-75
2023/04/04 11:05:39;;;;;;;0.17;0.17;;;5.10;86.40;;;;;;5033459;28;20231;-75
2023/04/04 11:08:12;;;;;;;0.20;0.20;;;4.80;86.20;;;;;;5030821;28;20214;-73
2023/04/04 11:10:42;;;;;;;0.10;0.10;;;4.70;86.60;;;;;;5058105;28;20216;-73
2023/04/04 11:13:15;;;;;;;0.23;0.23;;;4.60;86.90;;;;;;5033557;28;20261;-76
2023/04/04 11:15:59;;;;;;;0.20;0.20;;;4.50;87.30;;;;;;5035613;28;20343;-75
2023/04/04 11:18:31;;;;;;;0.20;0.20;;;4.50;87.90;;;;;;5038719;28;20213;-74
2023/04/04 11:21:01;;;;;;;0.20;0.20;;;4.40;88.60;;;;;;5045071;28;20223;-74
2023/04/04 11:23:27;;;;;;;0.17;0.17;;;4.30;89.20;;;;;;5036920;28;20269;-74
2023/04/04 11:25:56;;;;;;;0.20;0.20;;;4.20;89.00;;;;;;5043486;28;20760;-75
2023/04/04 11:28:42;;;;;;;0.13;0.13;;;4.20;89.30;;;;;;5043171;28;20647;-75
2023/04/04 11:31:21;;;;;;;0.27;0.27;;;4.20;89.80;;;;;;5038949;28;20653;-75
2023/04/04 11:34:06;;;;;;;0.10;0.10;;;4.20;90.10;;;;;;5043527;28;20683;-74
2023/04/04 11:36:35;;;;;;;0.20;0.20;;;4.10;89.90;;;;;;5042089;28;20261;-80
2023/04/04 11:39:12;;;;;;;0.30;0.30;;;4.20;90.40;;;;;;5044826;28;20203;-82
2023/04/04 11:41:53;;;;;;;0.20;0.20;;;4.40;90.40;;;;;;5035582;28;22602;-79
2023/04/04 11:44:23;;;;;;;0.30;0.30;;;4.40;89.70;;;;;;5033687;28;21750;-79
2023/04/04 11:47:14;;;;;;;0.20;0.20;;;4.50;89.70;;;;;;5041498;28;20221;-79
2023/04/04 11:49:42;;;;;;;0.10;0.10;;;4.40;89.60;;;;;;5036747;28;20269;-73
2023/04/04 11:52:14;;;;;;;0.20;0.20;;;4.30;89.80;;;;;;5041486;28;20204;-74
2023/04/04 11:54:41;;;;;;;0.20;0.20;;;4.30;89.70;;;;;;5044313;28;20211;-74
2023/04/04 11:57:10;;;;;;;0.23;0.23;;;4.40;89.90;;;;;;5042939;28;20268;-74
2023/04/04 11:59:40;;;;;;;0.20;0.20;;;4.50;89.70;;;;;;5049743;28;20175;-73
2023/04/04 12:02:06;;;;;;;0.10;0.10;;;4.60;89.70;;;;;;5047401;28;20542;-74
2023/04/04 12:04:33;;;;;;;0.47;0.47;;;4.70;88.90;;;;;;5050016;28;20249;-73
2023/04/04 12:07:00;;;;;;;0.13;0.13;;;4.60;88.50;;;;;;5050973;28;20230;-74
2023/04/04 12:09:27;;;;;;;0.27;0.27;;;4.70;88.80;;;;;;5051829;28;20178;-75
2023/04/04 12:11:54;;;;;;;0.20;0.20;;;4.80;88.30;;;;;;5052514;28;20209;-73
2023/04/04 12:14:27;;;;;;;0.20;0.20;;;4.70;88.20;;;;;;5052695;28;20179;-73
2023/04/04 12:16:54;;;;;;;0.27;0.27;;;4.60;88.20;;;;;;5049146;28;20616;-73
2023/04/04 12:19:23;;;;;;;0.40;0.40;;;4.50;88.90;;;;;;5049811;28;20182;-73
2023/04/04 12:21:49;;;;;;;0.30;0.30;;;4.60;88.90;;;;;;5056440;28;20570;-73
2023/04/04 12:24:15;;;;;;;0.60;0.33;;;4.50;88.70;;;;;;5038575;28;20231;-73
2023/04/04 12:26:45;;;;;;;0.20;0.20;;;4.40;89.20;;;;;;5050950;28;20710;-73
2023/04/04 12:29:12;;;;;;;0.30;0.30;;;4.40;89.20;;;;;;5057378;28;21305;-73
2023/04/04 12:31:41;;;;;;;1.13;0.53;;;4.30;89.40;;;;;;5053410;28;20175;-73
2023/04/04 12:34:14;;;;;;;0.40;0.40;;;4.20;89.90;;;;;;5055623;28;20280;-72
2023/04/04 12:36:40;;;;;;;0.10;0.10;;;4.20;90.00;;;;;;5055039;28;20179;-72
2023/04/04 12:39:10;;;;;;;0.20;0.20;;;4.20;89.70;;;;;;5048589;28;20176;-75
2023/04/04 12:41:47;;;;;;;0.40;0.40;;;4.10;89.60;;;;;;5069111;28;20211;-74
2023/04/04 12:44:32;;;;;;;0.20;0.20;;;4.10;89.80;;;;;;5052141;28;20620;-74
2023/04/04 12:47:00;;;;;;;0.20;0.20;;;4.00;89.90;;;;;;5043152;28;20219;-75
2023/04/04 12:49:31;;;;;;;0.27;0.27;;;3.90;89.80;;;;;;5041823;28;20281;-73
2023/04/04 12:52:03;;;;;;;0.10;0.10;;;3.70;89.80;;;;;;5041651;28;20217;-74
2023/04/04 12:54:31;;;;;;;0.20;0.20;;;3.50;90.40;;;;;;5043896;28;20616;-74
2023/04/04 12:56:58;;;;;;;0.23;0.23;;;3.40;90.80;;;;;;5040755;28;20211;-73
2023/04/04 12:59:28;;;;;;;0.40;0.40;;;3.40;91.30;;;;;;5044361;28;20208;-73
2023/04/04 13:01:55;;;;;;;0.20;0.20;;;3.50;91.50;;;;;;5047312;28;20257;-73